Time;durP1;ratioP1;P1;durP2;ratioP2;P2;SDS_P1;SDS_P2;PMS_P1;PMS_P2;Temp;Humidity;BMP_temperature;BMP_pressure;BME280_temperature;BME280_humidity;BME280_pressure;Samples;Min_cycle;Max_cycle;Signal;HPM_P1;HPM_P2
2021/12/29 00:01:20;;;;;;;2.13;1.10;;;;;;;8.55;96.53;100266.81;4994075;28;97562;-42
2021/12/29 00:03:45;;;;;;;2.67;1.27;;;;;;;8.55;96.37;100269.50;4993211;28;100578;-42
2021/12/29 00:06:11;;;;;;;2.92;1.85;;;;;;;8.43;96.22;100254.94;4994917;28;96749;-43
2021/12/29 00:08:36;;;;;;;3.47;1.50;;;;;;;8.47;96.26;100268.16;4994965;28;96735;-42
2021/12/29 00:11:03;;;;;;;3.72;1.08;;;;;;;8.47;96.23;100265.47;4993263;28;98072;-42
2021/12/29 00:13:28;;;;;;;2.58;1.23;;;;;;;8.53;96.39;100284.94;4999796;28;100659;-42
2021/12/29 00:15:57;;;;;;;2.13;1.02;;;;;;;8.45;96.23;100262.00;5001523;28;96450;-42
2021/12/29 00:18:27;;;;;;;1.83;1.05;;;;;;;8.53;96.29;100288.50;5001159;28;96787;-42
2021/12/29 00:20:54;;;;;;;3.88;0.90;;;;;;;8.46;96.40;100271.84;5000522;28;98232;-42
2021/12/29 00:23:19;;;;;;;1.60;1.13;;;;;;;8.45;96.35;100280.03;4999344;28;100814;-42
2021/12/29 00:25:45;;;;;;;2.05;0.57;;;;;;;8.47;96.06;100297.84;5001059;28;96627;-42
2021/12/29 00:28:10;;;;;;;1.42;0.98;;;;;;;8.49;96.12;100305.88;5001484;28;96758;-42
2021/12/29 00:30:35;;;;;;;8.73;1.25;;;;;;;8.52;96.09;100312.91;5000831;28;99813;-42
2021/12/29 00:33:01;;;;;;;1.58;0.93;;;;;;;8.44;95.98;100306.16;5000911;28;97787;-42
2021/12/29 00:35:27;;;;;;;1.35;0.70;;;;;;;8.44;96.03;100306.16;5001058;28;96648;-42
2021/12/29 00:37:53;;;;;;;1.25;1.13;;;;;;;8.47;96.04;100313.19;5000177;28;96920;-42
2021/12/29 00:40:18;;;;;;;6.15;1.27;;;;;;;8.47;96.00;100322.16;5000862;28;98195;-42
2021/12/29 00:42:43;;;;;;;1.70;0.80;;;;;;;8.55;95.80;100332.47;5000644;28;99241;-42
2021/12/29 00:45:09;;;;;;;1.23;1.02;;;;;;;8.46;95.81;100314.13;5000300;28;96700;-42
2021/12/29 00:47:37;;;;;;;3.30;1.15;;;;;;;8.44;95.86;100316.09;5000754;28;96843;-42
2021/12/29 00:50:06;;;;;;;2.00;0.73;;;;;;;8.55;95.85;100328.91;4998886;28;99069;-42
2021/12/29 00:52:31;;;;;;;2.25;1.20;;;;;;;8.50;96.04;100346.25;4999207;28;99443;-42
2021/12/29 00:54:56;;;;;;;1.45;0.77;;;;;;;8.45;95.99;100332.16;5000995;28;96679;-42
2021/12/29 00:57:22;;;;;;;4.03;1.42;;;;;;;8.50;95.99;100353.47;5000258;28;106962;-42
2021/12/29 00:59:47;;;;;;;1.20;0.80;;;;;;;8.54;95.83;100351.47;4999580;28;118150;-42
2021/12/29 01:02:12;;;;;;;3.85;1.27;;;;;;;8.43;96.21;100347.56;5001050;28;97742;-42
2021/12/29 01:04:38;;;;;;;1.98;1.27;;;;;;;8.44;96.07;100354.72;5000562;28;96676;-42
2021/12/29 01:07:04;;;;;;;2.40;1.42;;;;;;;8.45;95.94;100358.28;5000934;28;96751;-42
2021/12/29 01:09:29;;;;;;;1.45;0.77;;;;;;;8.43;96.13;100361.06;4999930;28;97906;-42
2021/12/29 01:11:56;;;;;;;1.35;1.25;;;;;;;8.54;96.01;100398.22;5000386;28;97787;-42
2021/12/29 01:14:24;;;;;;;5.30;1.48;;;;;;;8.44;96.12;100386.25;5000490;28;96832;-42
2021/12/29 01:16:50;;;;;;;2.03;1.05;;;;;;;8.39;96.13;100381.09;4999266;28;96819;-42
2021/12/29 01:19:19;;;;;;;2.78;0.75;;;;;;;8.55;96.10;100410.75;5000187;28;97343;-42
2021/12/29 01:21:49;;;;;;;3.10;0.90;;;;;;;8.55;96.25;100410.75;4998754;28;100757;-42
2021/12/29 01:24:15;;;;;;;2.22;1.25;;;;;;;8.55;96.41;100420.69;4995731;28;96654;-42
2021/12/29 01:26:43;;;;;;;2.72;1.13;;;;;;;8.52;96.58;100416.34;4996260;28;96852;-42
2021/12/29 01:29:09;;;;;;;2.08;1.67;;;;;;;8.54;96.31;100436.00;4996810;28;98168;-42
2021/12/29 01:31:35;;;;;;;6.22;1.08;;;;;;;8.54;96.42;100440.56;4995564;28;101055;-42
2021/12/29 01:34:04;;;;;;;1.05;0.82;;;;;;;8.54;96.56;100451.34;4994383;28;110147;-42
2021/12/29 01:36:29;;;;;;;3.17;1.10;;;;;;;8.52;96.48;100454.13;4995549;28;96807;-42
2021/12/29 01:38:55;;;;;;;1.85;1.13;;;;;;;8.38;96.72;100427.06;4996822;28;97654;-42
2021/12/29 01:41:20;;;;;;;4.35;0.93;;;;;;;8.42;96.44;100428.66;4996929;28;97358;-42
2021/12/29 01:43:45;;;;;;;0.80;0.70;;;;;;;8.33;96.38;100427.31;4997074;28;96653;-42
2021/12/29 01:46:11;;;;;;;0.80;0.60;;;;;;;8.51;96.48;100465.91;4996495;28;106990;-42
2021/12/29 01:48:36;;;;;;;1.48;0.93;;;;;;;8.40;96.72;100444.94;4996714;28;97987;-42
2021/12/29 01:51:02;;;;;;;2.75;0.68;;;;;;;8.51;96.72;100463.19;4996882;28;97992;-42
2021/12/29 01:53:31;;;;;;;1.63;0.90;;;;;;;8.44;96.46;100448.31;4996878;28;96488;-42
2021/12/29 01:55:57;;;;;;;0.93;0.70;;;;;;;8.43;96.63;100442.03;4996471;28;96815;-42
2021/12/29 01:58:24;;;;;;;1.65;1.10;;;;;;;8.43;96.61;100454.66;4994637;28;100854;-42
2021/12/29 02:00:52;;;;;;;1.30;0.90;;;;;;;8.43;96.61;100455.53;4994134;28;101180;-42
2021/12/29 02:03:17;;;;;;;2.65;1.13;;;;;;;8.47;96.54;100462.50;4995210;28;96632;-42
2021/12/29 02:05:44;;;;;;;1.05;0.90;;;;;;;8.48;96.77;100472.31;4996828;28;96804;-42
2021/12/29 02:08:11;;;;;;;1.10;0.80;;;;;;;8.47;96.85;100481.38;4994858;28;101005;-42
2021/12/29 02:10:44;;;;;;;1.67;0.90;;;;;;;8.34;96.73;100468.66;4996143;28;99624;-42
2021/12/29 02:13:11;;;;;;;1.38;0.95;;;;;;;8.49;96.90;100487.56;4996726;28;96476;-42
2021/12/29 02:15:36;;;;;;;1.83;0.93;;;;;;;8.50;96.84;100488.44;4995480;28;96829;-42
2021/12/29 02:18:02;;;;;;;5.93;1.10;;;;;;;8.50;96.72;100492.00;4996033;28;99512;-42
2021/12/29 02:20:28;;;;;;;1.73;1.10;;;;;;;8.50;96.78;100502.78;4994762;28;101049;-42
2021/12/29 02:23:16;;;;;;;3.40;1.20;;;;;;;8.43;96.59;100490.63;4996244;28;96479;-42
2021/12/29 02:25:48;;;;;;;2.90;1.30;;;;;;;8.46;96.70;100484.16;4995914;28;96875;-42
2021/12/29 02:28:16;;;;;;;1.92;0.80;;;;;;;8.41;96.68;100476.34;4996139;28;97999;-42
2021/12/29 02:30:41;;;;;;;2.53;0.93;;;;;;;8.48;96.76;100488.50;4994524;28;100817;-42
2021/12/29 02:33:07;;;;;;;0.95;0.80;;;;;;;8.41;96.75;100483.56;4996412;28;96473;-41
2021/12/29 02:35:33;;;;;;;2.25;1.33;;;;;;;8.40;96.82;100488.09;4994657;28;96816;-42
2021/12/29 02:38:00;;;;;;;1.02;0.80;;;;;;;8.38;96.56;100479.19;4995629;28;99342;-42
2021/12/29 02:40:26;;;;;;;4.32;1.15;;;;;;;8.49;96.71;100511.88;4994640;28;99149;-42
2021/12/29 02:42:52;;;;;;;2.20;0.88;;;;;;;8.41;96.67;100494.38;4994820;28;96706;-42
2021/12/29 02:45:21;;;;;;;4.50;1.40;;;;;;;8.42;96.88;100507.78;4996026;28;96773;-42
2021/12/29 02:47:47;;;;;;;5.35;1.50;;;;;;;8.38;96.77;100506.19;4993894;28;101270;-42
2021/12/29 02:50:17;;;;;;;1.40;1.00;;;;;;;8.48;96.87;100529.00;4995745;28;97838;-42
2021/12/29 02:52:46;;;;;;;1.58;1.00;;;;;;;8.48;96.78;100537.09;4994410;28;96631;-43
2021/12/29 02:55:12;;;;;;;6.22;1.15;;;;;;;8.49;96.70;100543.38;4994374;28;96845;-42
2021/12/29 02:57:38;;;;;;;0.73;0.55;;;;;;;8.47;96.90;100543.47;4995469;28;97542;-42
2021/12/29 03:00:05;;;;;;;3.17;1.15;;;;;;;8.36;96.66;100534.22;4994988;28;99359;-42
2021/12/29 03:02:30;;;;;;;5.90;1.00;;;;;;;8.47;96.78;100554.28;4994190;28;96600;-42
2021/12/29 03:04:59;;;;;;;3.35;1.08;;;;;;;8.35;96.80;100535.19;4995555;28;108041;-42
2021/12/29 03:07:24;;;;;;;2.25;0.70;;;;;;;8.47;96.68;100564.19;4995051;28;99517;-42
2021/12/29 03:09:50;;;;;;;0.40;0.40;;;;;;;8.46;96.83;100557.03;4995558;28;97363;-42
2021/12/29 03:12:15;;;;;;;1.00;0.45;;;;;;;8.44;96.67;100556.28;4994814;28;101424;-42
2021/12/29 03:14:58;;;;;;;1.23;0.90;;;;;;;8.32;96.81;100554.22;4994751;28;117435;-42
2021/12/29 03:17:23;;;;;;;1.17;0.75;;;;;;;8.45;96.81;100572.38;4977297;28;101324;-42
2021/12/29 03:19:49;;;;;;;0.82;0.52;;;;;;;8.37;97.12;100566.53;4995004;28;99301;-42
2021/12/29 03:22:14;;;;;;;1.90;0.50;;;;;;;8.42;96.78;100575.25;4995344;28;96626;-42
2021/12/29 03:24:40;;;;;;;4.10;1.10;;;;;;;8.46;96.70;100579.53;4995449;28;96715;-42
2021/12/29 03:27:06;;;;;;;1.05;0.90;;;;;;;8.36;96.60;100564.75;4994898;28;99503;-42
2021/12/29 03:29:31;;;;;;;0.82;0.65;;;;;;;8.43;96.83;100582.38;4995530;28;97762;-42
2021/12/29 03:31:59;;;;;;;1.27;0.90;;;;;;;8.35;96.87;100568.44;4995753;28;96587;-42
2021/12/29 03:34:24;;;;;;;1.38;0.77;;;;;;;8.36;96.80;100577.41;4993776;28;96870;-42
2021/12/29 03:36:50;;;;;;;2.95;1.00;;;;;;;8.32;96.92;100575.81;4994362;28;99498;-42
2021/12/29 03:39:15;;;;;;;0.50;0.47;;;;;;;8.42;96.65;100601.38;4995217;28;97395;-42
2021/12/29 03:41:40;;;;;;;0.77;0.57;;;;;;;8.36;96.78;100589.06;4995229;28;96633;-42
2021/12/29 03:44:06;;;;;;;1.60;0.93;;;;;;;8.44;96.67;100604.88;4994312;28;115549;-42
2021/12/29 03:46:33;;;;;;;1.83;1.05;;;;;;;8.44;96.59;100613.84;4993596;28;99328;-42
2021/12/29 03:48:59;;;;;;;2.28;1.20;;;;;;;8.38;96.71;100605.16;4994570;28;99176;-42
2021/12/29 03:51:25;;;;;;;2.72;1.30;;;;;;;8.43;96.85;100625.56;4995433;28;96401;-42
2021/12/29 03:53:50;;;;;;;3.53;1.25;;;;;;;8.42;96.80;100622.97;4995543;28;96750;-42
2021/12/29 03:56:18;;;;;;;8.95;1.73;;;;;;;8.42;96.74;100615.75;4994581;28;97364;-42
2021/12/29 03:58:44;;;;;;;1.40;0.93;;;;;;;8.41;96.69;100615.81;4993274;28;100874;-42
2021/12/29 04:01:11;;;;;;;1.92;1.15;;;;;;;8.40;96.83;100612.25;4993881;28;96482;-42
2021/12/29 04:03:37;;;;;;;2.92;1.50;;;;;;;8.38;96.85;100606.03;4994792;28;96792;-42
2021/12/29 04:06:03;;;;;;;3.17;1.38;;;;;;;8.30;96.73;100603.78;4994636;28;97876;-42
2021/12/29 04:08:29;;;;;;;4.15;1.35;;;;;;;8.29;96.61;100599.34;4993090;28;101220;-42
2021/12/29 04:10:55;;;;;;;2.22;1.27;;;;;;;8.34;96.51;100611.69;4994587;28;96665;-42
2021/12/29 04:13:20;;;;;;;2.10;1.20;;;;;;;8.36;96.53;100626.84;4994547;28;96891;-42
2021/12/29 04:15:45;;;;;;;3.95;1.38;;;;;;;8.29;96.53;100607.44;4994729;28;97356;-42
2021/12/29 04:18:26;;;;;;;1.38;0.95;;;;;;;8.41;96.57;100623.91;4994591;28;99591;-42
2021/12/29 04:21:02;;;;;;;1.85;1.45;;;;;;;8.38;96.33;100622.22;4993382;28;96694;-42
2021/12/29 04:23:31;;;;;;;2.65;1.40;;;;;;;8.29;96.35;100617.34;4994806;28;96571;-42
2021/12/29 04:25:58;;;;;;;0.77;0.70;;;;;;;8.37;96.23;100633.13;4992513;28;101249;-42
2021/12/29 04:28:25;;;;;;;2.28;1.20;;;;;;;8.27;96.49;100619.25;4994182;28;99385;-42
2021/12/29 04:30:54;;;;;;;2.03;1.15;;;;;;;8.26;96.48;100621.09;4992999;28;96694;-42
2021/12/29 04:33:22;;;;;;;1.00;0.80;;;;;;;8.26;96.50;100633.72;4993213;28;96823;-42
2021/12/29 04:35:48;;;;;;;3.10;1.45;;;;;;;8.37;96.47;100660.13;4992674;28;100870;-42
2021/12/29 04:38:14;;;;;;;3.63;1.17;;;;;;;8.37;96.44;100662.81;4992759;28;100715;-42
2021/12/29 04:40:39;;;;;;;3.25;0.93;;;;;;;8.27;96.36;100647.13;4994469;28;96606;-42
2021/12/29 04:43:05;;;;;;;2.83;1.38;;;;;;;8.37;96.37;100662.81;4994711;28;96816;-42
2021/12/29 04:45:31;;;;;;;3.53;1.20;;;;;;;8.35;96.30;100668.28;4993805;28;97823;-42
2021/12/29 04:47:56;;;;;;;1.40;1.08;;;;;;;8.28;96.25;100661.50;4993930;28;98978;-42
2021/12/29 04:50:36;;;;;;;3.15;1.83;;;;;;;8.36;96.40;100677.25;4992424;28;96638;-42
2021/12/29 04:53:02;;;;;;;2.90;1.40;;;;;;;8.34;96.38;100680.03;4994124;28;96542;-42
2021/12/29 04:55:29;;;;;;;2.78;1.63;;;;;;;8.35;96.38;100678.22;4992205;28;103394;-42
2021/12/29 04:57:57;;;;;;;2.72;1.23;;;;;;;8.25;96.13;100648.19;4993651;28;97487;-42
2021/12/29 05:00:24;;;;;;;3.38;1.88;;;;;;;8.27;96.38;100657.91;4995496;28;96770;-42
2021/12/29 05:02:51;;;;;;;2.80;1.90;;;;;;;8.25;96.17;100672.47;4996183;28;96796;-42
2021/12/29 05:05:23;;;;;;;9.02;2.10;;;;;;;8.28;96.35;100678.53;4997177;28;99447;-42
2021/12/29 05:10:33;;;;;;;4.05;1.70;;;;;;;8.32;96.30;100687.34;4997954;28;96602;-42
2021/12/29 05:12:58;;;;;;;2.88;1.50;;;;;;;8.30;96.24;100678.47;4996238;28;96823;-42
2021/12/29 05:15:24;;;;;;;2.80;1.85;;;;;;;8.36;96.06;100688.03;4995962;28;120798;-42
2021/12/29 05:17:49;;;;;;;3.03;1.40;;;;;;;8.27;95.99;100662.41;4996599;28;124324;-42
2021/12/29 05:20:15;;;;;;;5.47;3.05;;;;;;;8.25;96.07;100665.22;4997131;28;96583;-42
2021/12/29 05:22:53;;;;;;;4.65;1.50;;;;;;;8.26;95.81;100663.41;4996895;28;104647;-42
2021/12/29 05:25:18;;;;;;;9.70;1.73;;;;;;;8.26;95.85;100668.78;4996840;28;98104;-42
2021/12/29 05:27:44;;;;;;;4.57;2.22;;;;;;;8.24;95.96;100666.16;4997176;28;97826;-42
2021/12/29 05:30:10;;;;;;;9.60;1.85;;;;;;;8.30;95.98;100679.34;4997005;28;96515;-42
2021/12/29 05:32:35;;;;;;;3.78;1.80;;;;;;;8.23;95.90;100675.22;4996233;28;96784;-42
2021/12/29 05:35:00;;;;;;;7.45;2.45;;;;;;;8.20;95.77;100666.41;4996152;28;120463;-42
2021/12/29 05:37:25;;;;;;;4.45;1.58;;;;;;;8.25;95.88;100681.41;4995419;28;102907;-42
2021/12/29 05:39:51;;;;;;;3.67;2.20;;;;;;;8.37;95.78;100695.19;4996248;28;109178;-42
2021/12/29 05:42:16;;;;;;;3.45;1.73;;;;;;;8.28;95.87;100677.69;4995401;28;98830;-42
2021/12/29 05:44:41;;;;;;;9.20;2.22;;;;;;;8.27;95.77;100679.50;4996466;28;97875;-42
2021/12/29 05:47:07;;;;;;;2.88;1.75;;;;;;;8.30;95.95;100684.72;4996932;28;97834;-42
2021/12/29 05:49:33;;;;;;;4.25;2.42;;;;;;;8.30;95.85;100694.66;4996866;28;96672;-42
2021/12/29 05:51:58;;;;;;;4.05;2.40;;;;;;;8.23;95.73;100686.03;4995438;28;96839;-42
2021/12/29 05:54:24;;;;;;;8.68;2.75;;;;;;;8.32;95.88;100708.94;4995234;28;100753;-42
2021/12/29 05:56:49;;;;;;;3.13;2.28;;;;;;;8.23;95.87;100695.94;4996738;28;97305;-42
2021/12/29 05:59:14;;;;;;;7.03;2.63;;;;;;;8.29;95.84;100711.78;4996945;28;96416;-42
2021/12/29 06:01:42;;;;;;;8.63;2.88;;;;;;;8.18;95.59;100693.50;4996276;28;96842;-42
2021/12/29 06:04:09;;;;;;;5.20;2.28;;;;;;;8.21;95.56;100709.50;4994545;28;99490;-42
2021/12/29 06:06:34;;;;;;;4.00;2.00;;;;;;;8.34;95.74;100717.81;4996397;28;97765;-42
2021/12/29 06:09:00;;;;;;;2.28;1.67;;;;;;;8.29;95.58;100718.09;4996683;28;96617;-42
2021/12/29 06:11:25;;;;;;;1.60;1.13;;;;;;;8.30;95.67;100722.50;4996276;28;96755;-42
2021/12/29 06:13:51;;;;;;;7.57;1.60;;;;;;;8.33;95.54;100723.31;4996347;28;97861;-42
2021/12/29 06:16:16;;;;;;;2.75;2.13;;;;;;;8.16;95.59;100689.16;4996119;28;98988;-42
2021/12/29 06:18:41;;;;;;;2.92;1.88;;;;;;;8.29;95.70;100725.28;4996499;28;96599;-42
2021/12/29 06:21:06;;;;;;;8.55;2.35;;;;;;;8.20;95.54;100714.97;4995962;28;112058;-42
2021/12/29 06:23:32;;;;;;;3.53;1.92;;;;;;;8.17;95.45;100712.44;4995958;28;97471;-42
2021/12/29 06:25:57;;;;;;;6.05;1.60;;;;;;;8.26;95.45;100720.06;4995048;28;124978;-42
2021/12/29 06:28:22;;;;;;;6.20;1.88;;;;;;;8.21;95.53;100719.44;4995059;28;117867;-43
2021/12/29 06:30:48;;;;;;;2.97;1.80;;;;;;;8.16;95.50;100711.59;4996116;28;105095;-42
2021/12/29 06:33:13;;;;;;;4.00;2.28;;;;;;;8.23;95.52;100721.09;4995946;28;102359;-42
2021/12/29 06:35:39;;;;;;;6.30;1.60;;;;;;;8.18;95.57;100719.63;4996312;28;97376;-42
2021/12/29 06:38:04;;;;;;;2.92;1.42;;;;;;;8.26;95.48;100738.94;4995813;28;96626;-42
2021/12/29 06:40:30;;;;;;;3.65;1.90;;;;;;;8.13;95.67;100721.66;4996269;28;96697;-42
2021/12/29 06:42:55;;;;;;;3.70;1.73;;;;;;;8.15;95.19;100725.16;4995565;28;99204;-42
2021/12/29 06:45:21;;;;;;;11.77;2.05;;;;;;;8.08;95.29;100711.16;4995926;28;97556;-42
2021/12/29 06:47:46;;;;;;;5.50;1.95;;;;;;;8.13;95.41;100737.84;4996087;28;96427;-42
2021/12/29 06:50:11;;;;;;;10.80;2.17;;;;;;;8.11;95.66;100723.59;4995878;28;96819;-42
2021/12/29 06:52:37;;;;;;;2.88;1.80;;;;;;;8.12;95.48;100733.41;4994754;28;104991;-42
2021/12/29 06:55:03;;;;;;;3.47;1.95;;;;;;;8.21;95.56;100754.50;4995442;28;99194;-42
2021/12/29 06:57:28;;;;;;;3.65;1.88;;;;;;;8.22;95.70;100753.53;4994291;28;96741;-42
2021/12/29 06:59:54;;;;;;;6.63;2.17;;;;;;;8.17;95.77;100748.41;4995638;28;96837;-42
2021/12/29 07:02:19;;;;;;;2.83;1.73;;;;;;;8.11;95.67;100747.88;4994600;28;126450;-42
2021/12/29 07:04:45;;;;;;;3.63;2.22;;;;;;;8.15;95.56;100763.81;4995391;28;97316;-42
2021/12/29 07:07:10;;;;;;;5.88;2.42;;;;;;;8.06;95.64;100753.50;4995420;28;96638;-42
2021/12/29 07:09:36;;;;;;;5.07;2.75;;;;;;;8.06;95.71;100757.06;4994664;28;96797;-42
2021/12/29 07:12:02;;;;;;;5.15;2.05;;;;;;;8.12;95.80;100768.50;4994922;28;111560;-42
2021/12/29 07:14:27;;;;;;;7.75;2.50;;;;;;;8.12;95.66;100782.84;4993703;28;102633;-42
2021/12/29 07:16:53;;;;;;;2.10;1.48;;;;;;;8.09;95.73;100788.41;4995042;28;96448;-42
2021/12/29 07:19:19;;;;;;;3.72;1.65;;;;;;;7.97;95.73;100780.97;4995338;28;96795;-42
2021/12/29 07:21:46;;;;;;;3.97;2.60;;;;;;;7.97;95.97;100779.13;4992500;28;100687;-42
2021/12/29 07:24:12;;;;;;;4.85;2.40;;;;;;;7.96;96.05;100781.91;4993759;28;100390;-42
2021/12/29 07:26:38;;;;;;;4.82;2.58;;;;;;;8.05;95.98;100803.88;4995364;28;96716;-42
2021/12/29 07:29:05;;;;;;;4.53;1.88;;;;;;;8.01;95.82;100794.22;4993993;28;96991;-42
2021/12/29 07:31:31;;;;;;;6.38;2.33;;;;;;;8.02;95.94;100789.69;4993473;28;100902;-42
2021/12/29 07:33:57;;;;;;;3.08;1.90;;;;;;;7.81;95.89;100753.91;4993975;28;101391;-42
2021/12/29 07:36:22;;;;;;;4.10;2.00;;;;;;;7.98;96.06;100794.34;4995320;28;96594;-42
2021/12/29 07:38:48;;;;;;;7.28;2.28;;;;;;;8.00;95.83;100796.97;4995320;28;96726;-42
2021/12/29 07:41:14;;;;;;;3.40;1.75;;;;;;;7.77;95.74;100757.69;4994312;28;98951;-42
2021/12/29 07:43:40;;;;;;;6.40;2.30;;;;;;;7.87;95.66;100764.38;4993406;28;101009;-42
2021/12/29 07:46:06;;;;;;;5.57;2.05;;;;;;;7.96;95.88;100777.41;4994912;28;96428;-42
2021/12/29 07:48:33;;;;;;;3.58;2.10;;;;;;;8.00;95.86;100783.50;4993600;28;97639;-42
2021/12/29 07:51:01;;;;;;;7.32;2.10;;;;;;;7.87;95.84;100764.38;4993059;28;101173;-42
2021/12/29 07:53:26;;;;;;;3.40;2.67;;;;;;;7.96;95.66;100784.59;4993408;28;101136;-42
2021/12/29 07:55:52;;;;;;;6.13;2.15;;;;;;;7.93;95.71;100780.22;4994903;28;96733;-42
2021/12/29 07:58:18;;;;;;;4.45;2.33;;;;;;;7.95;95.94;100782.84;4993899;28;96784;-42
2021/12/29 08:00:44;;;;;;;3.17;1.85;;;;;;;7.90;95.71;100783.09;4994099;28;98913;-42
2021/12/29 08:03:13;;;;;;;3.50;1.90;;;;;;;7.88;95.84;100793.94;4993055;28;101290;-42
2021/12/29 08:05:40;;;;;;;8.07;2.00;;;;;;;7.87;95.87;100786.81;4994314;28;96572;-42
2021/12/29 08:08:06;;;;;;;6.18;1.92;;;;;;;7.80;95.79;100771.03;4993418;28;96799;-42
2021/12/29 08:10:33;;;;;;;3.10;1.80;;;;;;;7.77;95.84;100765.78;4994490;28;98014;-42
2021/12/29 08:12:59;;;;;;;2.63;1.50;;;;;;;7.79;95.91;100774.69;4993084;28;101117;-42
2021/12/29 08:15:24;;;;;;;2.60;2.00;;;;;;;7.86;95.75;100790.50;4994749;28;96575;-42
2021/12/29 08:17:50;;;;;;;2.30;1.42;;;;;;;7.90;95.77;100796.56;4994677;28;96726;-42
2021/12/29 08:20:15;;;;;;;4.25;1.30;;;;;;;7.83;95.72;100778.97;4994502;28;97938;-42
2021/12/29 08:22:40;;;;;;;2.78;1.77;;;;;;;7.90;95.51;100801.97;4994773;28;97541;-42
2021/12/29 08:25:07;;;;;;;2.20;1.40;;;;;;;7.77;95.49;100768.47;4994705;28;96457;-42
2021/12/29 08:27:33;;;;;;;3.20;1.48;;;;;;;7.84;95.50;100778.00;4993284;28;96772;-42
2021/12/29 08:29:59;;;;;;;4.75;2.03;;;;;;;7.78;95.56;100763.03;4993611;28;99287;-42
2021/12/29 08:32:24;;;;;;;3.42;1.55;;;;;;;7.86;95.60;100787.78;4994276;28;98037;-42
2021/12/29 08:34:49;;;;;;;2.85;1.48;;;;;;;7.80;95.54;100776.44;4996797;28;96632;-42
2021/12/29 08:37:15;;;;;;;5.18;2.40;;;;;;;7.87;95.56;100788.66;4998180;28;96792;-42
2021/12/29 08:39:40;;;;;;;7.22;2.70;;;;;;;7.83;95.57;100784.34;4997872;28;97979;-42
2021/12/29 08:42:05;;;;;;;6.72;2.13;;;;;;;7.77;95.56;100787.34;4997630;28;103205;-42
2021/12/29 08:44:31;;;;;;;1.70;1.25;;;;;;;7.84;95.58;100800.47;4997635;28;96619;-42
2021/12/29 08:46:56;;;;;;;3.33;1.67;;;;;;;7.78;95.49;100790.00;4998078;28;96881;-42
2021/12/29 08:49:21;;;;;;;2.75;1.92;;;;;;;7.87;95.50;100803.00;4997326;28;99102;-42
2021/12/29 08:51:47;;;;;;;6.38;2.00;;;;;;;7.70;95.49;100773.34;4996769;28;119679;-42
2021/12/29 08:54:18;;;;;;;3.80;1.65;;;;;;;7.90;95.30;100796.56;4996991;28;101463;-42
2021/12/29 08:56:43;;;;;;;10.60;2.30;;;;;;;7.89;95.46;100794.84;4997267;28;103974;-42
2021/12/29 08:59:12;;;;;;;3.15;2.13;;;;;;;7.78;94.91;100781.91;4997127;28;106471;-42
2021/12/29 09:01:37;;;;;;;8.20;1.73;;;;;;;7.73;95.16;100769.63;4995595;28;100896;-42
2021/12/29 09:04:03;;;;;;;2.72;1.60;;;;;;;7.76;95.10;100766.75;4997728;28;96547;-42
2021/12/29 09:06:28;;;;;;;2.35;1.58;;;;;;;7.78;95.18;100768.41;4997803;28;96769;-42
2021/12/29 09:08:54;;;;;;;2.45;1.80;;;;;;;7.73;94.89;100767.78;4997442;28;97889;-42
2021/12/29 09:11:20;;;;;;;2.78;1.70;;;;;;;7.79;94.77;100783.63;4996255;28;98215;-42
2021/12/29 09:13:45;;;;;;;2.67;1.40;;;;;;;7.83;95.05;100793.31;4996145;28;96509;-42
2021/12/29 09:16:11;;;;;;;5.88;2.20;;;;;;;7.78;94.91;100784.59;4997484;28;96752;-42
2021/12/29 09:18:37;;;;;;;3.35;1.90;;;;;;;7.68;94.80;100775.25;4996649;28;99481;-42
2021/12/29 09:21:07;;;;;;;8.63;1.40;;;;;;;7.67;94.67;100770.78;4995615;28;99254;-42
2021/12/29 09:23:36;;;;;;;2.58;1.70;;;;;;;7.74;94.47;100774.91;4995841;28;96726;-42
2021/12/29 09:26:02;;;;;;;3.55;1.50;;;;;;;7.72;94.33;100762.47;4995879;28;96970;-42
2021/12/29 09:28:28;;;;;;;2.40;1.48;;;;;;;7.76;94.22;100778.41;4995541;28;101055;-42
2021/12/29 09:30:53;;;;;;;2.75;1.65;;;;;;;7.79;94.51;100777.38;4996161;28;115346;-42
2021/12/29 09:33:19;;;;;;;8.30;1.58;;;;;;;7.71;94.29;100760.72;4997242;28;96651;-42
2021/12/29 09:35:49;;;;;;;3.45;1.50;;;;;;;7.71;94.17;100769.69;4997198;28;96775;-42
2021/12/29 09:38:16;;;;;;;3.75;2.47;;;;;;;7.85;94.02;100787.84;4996709;28;99497;-42
2021/12/29 09:40:43;;;;;;;2.90;1.40;;;;;;;7.83;93.86;100779.84;4995379;28;100792;-42
2021/12/29 09:43:09;;;;;;;2.05;1.42;;;;;;;7.88;93.99;100783.16;4995093;28;96545;-42
2021/12/29 09:45:37;;;;;;;2.25;1.67;;;;;;;7.79;93.70;100772.84;4995901;28;96685;-42
2021/12/29 09:48:03;;;;;;;5.35;2.20;;;;;;;7.90;93.73;100775.00;4995091;28;100590;-42
2021/12/29 09:50:28;;;;;;;3.08;2.08;;;;;;;7.90;93.84;100771.44;4995092;28;102033;-42
2021/12/29 09:52:56;;;;;;;3.38;2.03;;;;;;;7.90;93.83;100772.31;4996918;28;96582;-42
2021/12/29 09:55:22;;;;;;;3.72;2.45;;;;;;;7.87;93.88;100762.56;4995138;28;96898;-42
2021/12/29 09:57:51;;;;;;;8.95;2.80;;;;;;;7.79;93.90;100751.28;4994915;28;100876;-42
2021/12/29 10:00:28;;;;;;;3.90;2.47;;;;;;;7.79;93.94;100737.78;4994767;28;101168;-42
2021/12/29 10:02:55;;;;;;;3.10;2.00;;;;;;;7.79;93.79;100732.41;4995284;28;96687;-42
2021/12/29 10:05:22;;;;;;;3.05;1.75;;;;;;;7.81;93.87;100737.72;4995307;28;96774;-42
2021/12/29 10:08:03;;;;;;;2.33;1.75;;;;;;;7.82;93.85;100737.66;4994429;28;100907;-42
2021/12/29 10:10:29;;;;;;;2.97;1.80;;;;;;;7.82;93.48;100726.88;4994715;28;104650;-42
2021/12/29 10:12:56;;;;;;;5.82;2.55;;;;;;;7.81;93.43;100716.16;4995220;28;96595;-42
2021/12/29 10:15:27;;;;;;;4.60;1.65;;;;;;;7.96;93.60;100738.75;4995224;28;96806;-42
2021/12/29 10:18:02;;;;;;;7.33;2.27;;;;;;;7.85;93.48;100715.91;4996464;28;98054;-42
2021/12/29 10:20:28;;;;;;;2.67;1.83;;;;;;;7.78;93.04;100706.41;4996402;28;98010;-42
2021/12/29 10:22:57;;;;;;;3.10;1.58;;;;;;;7.86;93.02;100724.88;4996107;28;97438;-42
2021/12/29 10:25:24;;;;;;;3.33;1.70;;;;;;;7.90;93.35;100725.59;4995220;28;96869;-42
2021/12/29 10:27:51;;;;;;;8.15;2.45;;;;;;;7.80;93.50;100709.91;4994540;28;101126;-42
2021/12/29 10:30:17;;;;;;;6.60;3.22;;;;;;;7.87;93.02;100735.59;4994531;28;100913;-43
2021/12/29 10:32:43;;;;;;;5.15;2.78;;;;;;;7.87;93.27;100734.72;4994413;28;96707;-42
2021/12/29 10:35:08;;;;;;;4.45;1.98;;;;;;;7.80;93.46;100715.28;4996260;28;96771;-43
2021/12/29 10:37:33;;;;;;;4.65;2.63;;;;;;;7.83;93.13;100708.84;4994987;28;118023;-42
2021/12/29 10:39:59;;;;;;;6.18;2.72;;;;;;;7.88;93.62;100731.91;4996208;28;96567;-42
2021/12/29 10:42:26;;;;;;;5.78;2.45;;;;;;;7.94;93.36;100736.16;4996136;28;96546;-42
2021/12/29 10:44:59;;;;;;;6.18;2.92;;;;;;;7.88;93.33;100741.84;4994378;28;96798;-43
2021/12/29 10:47:33;;;;;;;4.00;2.20;;;;;;;7.83;93.69;100725.03;4994330;28;101036;-42
2021/12/29 10:50:05;;;;;;;5.05;2.15;;;;;;;7.98;93.48;100758.41;4994415;28;100749;-43
2021/12/29 10:52:40;;;;;;;8.77;2.95;;;;;;;7.96;93.43;100736.03;4994458;28;96620;-43
2021/12/29 10:55:10;;;;;;;8.05;2.65;;;;;;;7.97;93.40;100746.75;4996213;28;96591;-42
2021/12/29 10:57:36;;;;;;;7.63;2.58;;;;;;;7.85;93.35;100710.53;4993309;28;101808;-42
2021/12/29 11:00:04;;;;;;;4.10;2.33;;;;;;;7.96;93.46;100728.84;4993562;28;100735;-43
2021/12/29 11:02:32;;;;;;;5.18;2.63;;;;;;;7.93;93.51;100722.72;4994313;28;96705;-43
2021/12/29 11:05:00;;;;;;;4.95;2.58;;;;;;;7.91;93.29;100720.09;4994353;28;96829;-43
2021/12/29 11:07:28;;;;;;;7.10;2.08;;;;;;;7.87;93.33;100695.13;4994108;28;100592;-42
2021/12/29 11:09:54;;;;;;;8.23;3.22;;;;;;;7.92;93.60;100677.84;4994147;28;100148;-43
2021/12/29 11:12:20;;;;;;;4.03;2.35;;;;;;;7.87;93.65;100678.09;4994131;28;96678;-42
2021/12/29 11:14:52;;;;;;;5.53;2.92;;;;;;;7.90;93.47;100687.84;4996069;28;96731;-42
2021/12/29 11:17:24;;;;;;;3.20;1.85;;;;;;;7.97;93.58;100691.97;4993886;28;101466;-42
2021/12/29 11:19:56;;;;;;;3.10;2.30;;;;;;;8.00;93.75;100684.56;4993817;28;102363;-43
2021/12/29 11:22:24;;;;;;;2.50;1.50;;;;;;;8.02;93.70;100687.19;4995007;28;96791;-43
2021/12/29 11:25:01;;;;;;;6.95;2.65;;;;;;;7.99;93.46;100674.72;4993899;28;96929;-43
2021/12/29 11:27:28;;;;;;;4.20;2.72;;;;;;;7.93;93.75;100672.34;4995164;28;97591;-43
2021/12/29 11:30:20;;;;;;;6.50;2.85;;;;;;;8.05;93.76;100682.47;4993580;28;100894;-42
2021/12/29 11:32:47;;;;;;;4.50;2.30;;;;;;;8.01;93.88;100671.97;4994623;28;96816;-42